Huvudsida
METAR-TAF:

METAR-TAF

Flygplatser :

Andøya flygplats. Andenes

Andøya, Norge

latitud: 69-18N, longitud: 016-09E, höjd: 1 m

Aktuellt väderrapport

Denna rapport gjordes för 14 minuter sedan, klockan 00:50 UTC
Vind 16 kt från sydväst
Temperatur 7°C
Fuktighet 81%
Tryck 1010 hPa
Sikt 10 km eller mer

METAR: ENAN 210050Z AUTO 22016KT 9999 BKN025/// BKN033/// OVC061/// 07/04 Q1010

Tid: 03:04 (01:04 UTC)

Väderprognos

Prognos gäller från 21 kl. 00 UTC till 21 kl. 24 UTC
Vind 20 kt från sydväst
Sikt 10 km eller mer
Få moln på en höjd av 2000 ft, Högtornande cumulus.
Brutna moln på en höjd av 3000 ft
lätta regnskurar
Temporärt
från 21 kl. 00 UTC till 21 kl. 18 UTC
Vind 25 kt från väst/sydväst i byarna ända upp till 35 kt

TAF: ENAN 2100/2124 23020KT 9999 -SHRA FEW020TCU BKN030 TEMPO 2100/2118 24025G35KT

Aktuella väderrapporter och prognoser från 4000 flygplatser (METAR- och TAF-rapporter).

De tillgängliga stationerna syns som gula och röda prickar på kartan.

För musen över prickarna för att se namnen på stationerna.

Klicka sedan för att få väderrapporter och prognoser.

För att ändra kartan: Klicka på de gröna knapparna med ett svart kors på för att zooma in; den gröna knappen med ett streck på för att zooma ut; eller på de gröna pilarna för angränsande kartor.


METAR-TAF: